Time;durP1;ratioP1;P1;durP2;ratioP2;P2;SDS_P1;SDS_P2;PMS_P1;PMS_P2;Temp;Humidity;BMP_temperature;BMP_pressure;BME280_temperature;BME280_humidity;BME280_pressure;Samples;Min_cycle;Max_cycle;Signal;HPM_P1;HPM_P2
2023/05/24 00:00:40;;;;;;;;;;;;;;;;;;5034608;28;19914;-76
2023/05/24 00:03:06;;;;;;;;;;;;;;;;;;5047960;28;19928;-77
2023/05/24 00:05:31;;;;;;;;;;;;;;;;;;5017381;28;19917;-78
2023/05/24 00:07:58;;;;;;;;;;;;;;;;;;5033990;28;19913;-77
2023/05/24 00:10:23;;;;;;;;;;;;;;;;;;5034489;28;19913;-77
2023/05/24 00:12:48;;;;;;;;;;;;;;;;;;5034438;28;19987;-78
2023/05/24 00:15:14;;;;;;;;;;;;;;;;;;5033258;28;19913;-78
2023/05/24 00:17:41;;;;;;;;;;;;;;;;;;5033875;28;19913;-77
2023/05/24 00:20:08;;;;;;;;;;;;;;;;;;5034088;28;19920;-77
2023/05/24 00:22:35;;;;;;;;;;;;;;;;;;5016329;28;20326;-77
2023/05/24 00:25:03;;;;;;;;;;;;;;;;;;5016883;28;19909;-77
2023/05/24 00:27:29;;;;;;;;;;;;;;;;;;5034283;28;20000;-77
2023/05/24 00:29:54;;;;;;;;;;;;;;;;;;5033505;28;19960;-77
2023/05/24 00:32:20;;;;;;;;;;;;;;;;;;5033057;28;19921;-77
2023/05/24 00:34:47;;;;;;;;;;;;;;;;;;5034777;28;19913;-77
2023/05/24 00:37:13;;;;;;;;;;;;;;;;;;5047456;28;19913;-76
2023/05/24 00:39:39;;;;;;;;;;;;;;;;;;5037913;28;19913;-76
2023/05/24 00:42:04;;;;;;;;;;;;;;;;;;5044869;28;19913;-77
2023/05/24 00:44:30;;;;;;;;;;;;;;;;;;5045891;28;20380;-76
2023/05/24 00:46:55;;;;;;;;;;;;;;;;;;5041458;28;20722;-77
2023/05/24 00:49:20;;;;;;;;;;;;;;;;;;5042260;28;19913;-77
2023/05/24 00:51:46;;;;;;;;;;;;;;;;;;5040997;28;19917;-76
2023/05/24 00:54:13;;;;;;;;;;;;;;;;;;5041496;28;19999;-76
2023/05/24 00:56:39;;;;;;;;;;;;;;;;;;5020487;28;19913;-77
2023/05/24 00:59:04;;;;;;;;;;;;;;;;;;5033902;28;19959;-77
2023/05/24 01:01:34;;;;;;;;;;;;;;;;;;5032133;28;19944;-77
2023/05/24 01:03:59;;;;;;;;;;;;;;;;;;5015734;28;19913;-77
2023/05/24 01:06:25;;;;;;;;;;;;;;;;;;5032669;28;19939;-77
2023/05/24 01:08:51;;;;;;;;;;;;;;;;;;5033803;28;20380;-76
2023/05/24 01:11:17;;;;;;;;;;;;;;;;;;5032371;28;19989;-77
2023/05/24 01:13:44;;;;;;;;;;;;;;;;;;5033672;28;19924;-76
2023/05/24 01:16:10;;;;;;;;;;;;;;;;;;5033884;28;20027;-77
2023/05/24 01:18:35;;;;;;;;;;;;;;;;;;5032346;28;20357;-77
2023/05/24 01:21:01;;;;;;;;;;;;;;;;;;5021241;28;19913;-77
2023/05/24 01:23:26;;;;;;;;;;;;;;;;;;5033403;28;20391;-76
2023/05/24 01:25:52;;;;;;;;;;;;;;;;;;5031829;28;19917;-76
2023/05/24 01:28:17;;;;;;;;;;;;;;;;;;5033322;28;19964;-77
2023/05/24 01:30:43;;;;;;;;;;;;;;;;;;5032243;28;19978;-78
2023/05/24 01:33:08;;;;;;;;;;;;;;;;;;5032847;28;20380;-78
2023/05/24 01:35:39;;;;;;;;;;;;;;;;;;5031800;28;19917;-77
2023/05/24 01:38:04;;;;;;;;;;;;;;;;;;5033024;28;19913;-76
2023/05/24 01:40:29;;;;;;;;;;;;;;;;;;5031474;28;19948;-76
2023/05/24 01:42:56;;;;;;;;;;;;;;;;;;5031258;28;20116;-77
2023/05/24 01:45:21;;;;;;;;;;;;;;;;;;5015258;28;20444;-77
2023/05/24 01:47:46;;;;;;;;;;;;;;;;;;5031464;28;19920;-77
2023/05/24 01:50:13;;;;;;;;;;;;;;;;;;5032328;28;19982;-78
2023/05/24 01:52:38;;;;;;;;;;;;;;;;;;5032372;28;20431;-77
2023/05/24 01:55:04;;;;;;;;;;;;;;;;;;5032472;28;19913;-78
2023/05/24 01:57:30;;;;;;;;;;;;;;;;;;5014989;28;19913;-77
2023/05/24 01:59:55;;;;;;;;;;;;;;;;;;5031008;28;19924;-76
2023/05/24 02:02:21;;;;;;;;;;;;;;;;;;5031334;28;20420;-77
2023/05/24 02:04:46;;;;;;;;;;;;;;;;;;5032269;28;19913;-77
2023/05/24 02:07:12;;;;;;;;;;;;;;;;;;5031087;28;19917;-77
2023/05/24 02:09:37;;;;;;;;;;;;;;;;;;5030704;28;20372;-77
2023/05/24 02:12:02;;;;;;;;;;;;;;;;;;5030865;28;19917;-77
2023/05/24 02:14:28;;;;;;;;;;;;;;;;;;5030262;28;19951;-76
2023/05/24 02:16:57;;;;;;;;;;;;;;;;;;5030572;28;20004;-78
2023/05/24 02:19:22;;;;;;;;;;;;;;;;;;5032010;28;19965;-77
2023/05/24 02:21:48;;;;;;;;;;;;;;;;;;5032106;28;19953;-77
2023/05/24 02:24:13;;;;;;;;;;;;;;;;;;5035028;28;19920;-78
2023/05/24 02:26:39;;;;;;;;;;;;;;;;;;5032533;28;20407;-78
2023/05/24 02:29:04;;;;;;;;;;;;;;;;;;5032483;28;20012;-77
2023/05/24 02:31:30;;;;;;;;;;;;;;;;;;5016530;28;20387;-77
2023/05/24 02:33:55;;;;;;;;;;;;;;;;;;5031547;28;19921;-77
2023/05/24 02:36:22;;;;;;;;;;;;;;;;;;5032550;28;19956;-77
2023/05/24 02:38:47;;;;;;;;;;;;;;;;;;5032141;28;19924;-77
2023/05/24 02:41:16;;;;;;;;;;;;;;;;;;5031587;28;19913;-76
2023/05/24 02:43:42;;;;;;;;;;;;;;;;;;5032437;28;19960;-78
2023/05/24 02:46:08;;;;;;;;;;;;;;;;;;5031391;28;19953;-78
2023/05/24 02:48:33;;;;;;;;;;;;;;;;;;5030818;28;19913;-77
2023/05/24 02:51:02;;;;;;;;;;;;;;;;;;5031879;28;19917;-77
2023/05/24 02:53:27;;;;;;;;;;;;;;;;;;5030590;28;20012;-77
2023/05/24 02:55:53;;;;;;;;;;;;;;;;;;5031773;28;20302;-77
2023/05/24 02:58:18;;;;;;;;;;;;;;;;;;5030902;28;19967;-77
2023/05/24 03:00:46;;;;;;;;;;;;;;;;;;5030389;28;19913;-77
2023/05/24 03:03:11;;;;;;;;;;;;;;;;;;5031836;28;19917;-78
2023/05/24 03:05:37;;;;;;;;;;;;;;;;;;5030551;28;19913;-77
2023/05/24 03:08:03;;;;;;;;;;;;;;;;;;5031934;28;19936;-77
2023/05/24 03:10:28;;;;;;;;;;;;;;;;;;5017088;28;20396;-78
2023/05/24 03:12:53;;;;;;;;;;;;;;;;;;5030579;28;20380;-77
2023/05/24 03:15:19;;;;;;;;;;;;;;;;;;5030742;28;19959;-77
2023/05/24 03:17:45;;;;;;;;;;;;;;;;;;5012303;28;19920;-78
2023/05/24 03:20:10;;;;;;;;;;;;;;;;;;4997446;28;19915;-77
2023/05/24 03:22:36;;;;;;;;;;;;;;;;;;5047342;28;19920;-78
2023/05/24 03:25:01;;;;;;;;;;;;;;;;;;5013940;28;19963;-76
2023/05/24 03:27:27;;;;;;;;;;;;;;;;;;5034594;28;19964;-77
2023/05/24 03:29:53;;;;;;;;;;;;;;;;;;5041432;28;19913;-77
2023/05/24 03:32:21;;;;;;;;;;;;;;;;;;5022917;28;19928;-77
2023/05/24 03:34:46;;;;;;;;;;;;;;;;;;5053316;28;19913;-77
2023/05/24 03:37:12;;;;;;;;;;;;;;;;;;5054899;28;19909;-77
2023/05/24 03:39:38;;;;;;;;;;;;;;;;;;5038512;28;19949;-77
2023/05/24 03:42:36;;;;;;;;;;;;;;;;;;5040444;28;19913;-78
2023/05/24 03:45:02;;;;;;;;;;;;;;;;;;5055986;28;19924;-76
2023/05/24 03:47:29;;;;;;;;;;;;;;;;;;5051672;28;19914;-77
2023/05/24 03:49:55;;;;;;;;;;;;;;;;;;5037469;28;19987;-77
2023/05/24 03:52:20;;;;;;;;;;;;;;;;;;5033828;28;19928;-77
2023/05/24 03:54:45;;;;;;;;;;;;;;;;;;5034364;28;20324;-78
2023/05/24 03:57:11;;;;;;;;;;;;;;;;;;5034638;28;20384;-77
2023/05/24 03:59:36;;;;;;;;;;;;;;;;;;5018330;28;19921;-77
2023/05/24 04:02:01;;;;;;;;;;;;;;;;;;5035871;28;19920;-77
2023/05/24 04:04:27;;;;;;;;;;;;;;;;;;5034166;28;19913;-77
2023/05/24 04:06:52;;;;;;;;;;;;;;;;;;5018110;28;19923;-76
2023/05/24 04:09:18;;;;;;;;;;;;;;;;;;5017604;28;20368;-78
2023/05/24 04:11:44;;;;;;;;;;;;;;;;;;5033292;28;19921;-77
2023/05/24 04:14:10;;;;;;;;;;;;;;;;;;5035392;28;19913;-76
2023/05/24 04:16:38;;;;;;;;;;;;;;;;;;5031815;28;19914;-77
2023/05/24 04:19:05;;;;;;;;;;;;;;;;;;5033836;28;19913;-77
2023/05/24 04:21:32;;;;;;;;;;;;;;;;;;5046284;28;20375;-77
2023/05/24 04:23:59;;;;;;;;;;;;;;;;;;5043728;28;20027;-77
2023/05/24 04:26:24;;;;;;;;;;;;;;;;;;5033310;28;19925;-77
2023/05/24 04:28:49;;;;;;;;;;;;;;;;;;5033264;28;19932;-77
2023/05/24 04:31:15;;;;;;;;;;;;;;;;;;5033030;28;19913;-76
2023/05/24 04:33:41;;;;;;;;;;;;;;;;;;5032967;28;20392;-77
2023/05/24 04:36:07;;;;;;;;;;;;;;;;;;5033220;28;19921;-78
2023/05/24 04:38:33;;;;;;;;;;;;;;;;;;5033918;28;19917;-77
2023/05/24 04:40:58;;;;;;;;;;;;;;;;;;5044192;28;19992;-77
2023/05/24 04:43:25;;;;;;;;;;;;;;;;;;5032989;28;19948;-77
2023/05/24 04:45:50;;;;;;;;;;;;;;;;;;5034160;28;19913;-78
2023/05/24 04:48:16;;;;;;;;;;;;;;;;;;5033169;28;20473;-77
2023/05/24 04:50:41;;;;;;;;;;;;;;;;;;5049560;28;19913;-77
2023/05/24 04:53:07;;;;;;;;;;;;;;;;;;5032724;28;19916;-77
2023/05/24 04:55:32;;;;;;;;;;;;;;;;;;5033945;28;19920;-77
2023/05/24 04:57:58;;;;;;;;;;;;;;;;;;5016790;28;20314;-77
2023/05/24 05:00:23;;;;;;;;;;;;;;;;;;5033504;28;19914;-78
2023/05/24 05:02:49;;;;;;;;;;;;;;;;;;5032778;28;20382;-77
2023/05/24 05:05:15;;;;;;;;;;;;;;;;;;5033576;28;19919;-77
2023/05/24 05:07:40;;;;;;;;;;;;;;;;;;5033678;28;19940;-77
2023/05/24 05:10:05;;;;;;;;;;;;;;;;;;5033870;28;19913;-77
2023/05/24 05:12:31;;;;;;;;;;;;;;;;;;5032608;28;19928;-78
2023/05/24 05:14:56;;;;;;;;;;;;;;;;;;5032960;28;19917;-77
2023/05/24 05:17:22;;;;;;;;;;;;;;;;;;5031783;28;19917;-77
2023/05/24 05:19:47;;;;;;;;;;;;;;;;;;5033240;28;20007;-78
2023/05/24 05:22:12;;;;;;;;;;;;;;;;;;5016624;28;19951;-77
2023/05/24 05:24:38;;;;;;;;;;;;;;;;;;5033445;28;19917;-78
2023/05/24 05:27:03;;;;;;;;;;;;;;;;;;5033996;28;20007;-77
2023/05/24 05:29:29;;;;;;;;;;;;;;;;;;5033121;28;20242;-77
2023/05/24 05:31:54;;;;;;;;;;;;;;;;;;5032324;28;19921;-78
2023/05/24 05:34:20;;;;;;;;;;;;;;;;;;5033390;28;19918;-77
2023/05/24 05:36:45;;;;;;;;;;;;;;;;;;5032100;28;19953;-77
2023/05/24 05:39:11;;;;;;;;;;;;;;;;;;5032066;28;19917;-77
2023/05/24 05:41:36;;;;;;;;;;;;;;;;;;5033037;28;19920;-77
2023/05/24 05:44:02;;;;;;;;;;;;;;;;;;5032983;28;20300;-78
2023/05/24 05:46:27;;;;;;;;;;;;;;;;;;5032767;28;19913;-77
2023/05/24 05:48:53;;;;;;;;;;;;;;;;;;5032456;28;20320;-77
2023/05/24 05:51:18;;;;;;;;;;;;;;;;;;5032552;28;19920;-77
2023/05/24 05:53:43;;;;;;;;;;;;;;;;;;5032794;28;19931;-77
2023/05/24 05:56:09;;;;;;;;;;;;;;;;;;5033075;28;19920;-77
2023/05/24 05:58:34;;;;;;;;;;;;;;;;;;5032597;28;20011;-76
2023/05/24 06:01:00;;;;;;;;;;;;;;;;;;5031729;28;19936;-77
2023/05/24 06:03:25;;;;;;;;;;;;;;;;;;5031456;28;19971;-77
2023/05/24 06:05:50;;;;;;;;;;;;;;;;;;5032350;28;19921;-77
2023/05/24 06:08:16;;;;;;;;;;;;;;;;;;5031404;28;20063;-77
2023/05/24 06:10:41;;;;;;;;;;;;;;;;;;5032159;28;19917;-77
2023/05/24 06:13:07;;;;;;;;;;;;;;;;;;5032658;28;19917;-77
2023/05/24 06:15:33;;;;;;;;;;;;;;;;;;5031418;28;19913;-77
2023/05/24 06:17:59;;;;;;;;;;;;;;;;;;5030617;28;19917;-78
2023/05/24 06:20:24;;;;;;;;;;;;;;;;;;5034561;28;19996;-77
2023/05/24 06:22:50;;;;;;;;;;;;;;;;;;5043579;28;19979;-76
2023/05/24 06:25:17;;;;;;;;;;;;;;;;;;5035235;28;19914;-77
2023/05/24 06:27:43;;;;;;;;;;;;;;;;;;5037964;28;19913;-77
2023/05/24 06:30:08;;;;;;;;;;;;;;;;;;5049022;28;19948;-77
2023/05/24 06:32:34;;;;;;;;;;;;;;;;;;5080834;23;19925;-82
2023/05/24 06:34:59;;;;;;;;;;;;;;;;;;5075075;28;19976;-83
2023/05/24 06:37:25;;;;;;;;;;;;;;;;;;5074295;28;19905;-80
2023/05/24 06:39:50;;;;;;;;;;;;;;;;;;5073401;28;19920;-83
2023/05/24 06:42:16;;;;;;;;;;;;;;;;;;5073521;28;19929;-85
2023/05/24 06:44:44;;;;;;;;;;;;;;;;;;5072724;28;19959;-85
2023/05/24 06:47:10;;;;;;;;;;;;;;;;;;5069135;28;20364;-86
2023/05/24 06:49:35;;;;;;;;;;;;;;;;;;5057448;28;19919;-86
2023/05/24 06:52:00;;;;;;;;;;;;;;;;;;5053526;28;20012;-85
2023/05/24 06:54:26;;;;;;;;;;;;;;;;;;5052210;28;20495;-83
2023/05/24 06:56:51;;;;;;;;;;;;;;;;;;5018863;28;19913;-85
2023/05/24 06:59:16;;;;;;;;;;;;;;;;;;5052376;28;19956;-86
2023/05/24 07:01:43;;;;;;;;;;;;;;;;;;5038202;28;20002;-85
2023/05/24 07:04:08;;;;;;;;;;;;;;;;;;5055406;28;19923;-84
2023/05/24 07:06:33;;;;;;;;;;;;;;;;;;5056192;28;19913;-85
2023/05/24 07:09:00;;;;;;;;;;;;;;;;;;5039706;28;19913;-83
2023/05/24 07:11:26;;;;;;;;;;;;;;;;;;5054256;28;20288;-82
2023/05/24 07:13:51;;;;;;;;;;;;;;;;;;5054324;28;19943;-80
2023/05/24 07:16:17;;;;;;;;;;;;;;;;;;5054878;28;19920;-81
2023/05/24 07:18:42;;;;;;;;;;;;;;;;;;5069963;28;19912;-81
2023/05/24 07:21:07;;;;;;;;;;;;;;;;;;5053935;28;19917;-79
2023/05/24 07:23:33;;;;;;;;;;;;;;;;;;5056896;28;19913;-80
2023/05/24 07:25:58;;;;;;;;;;;;;;;;;;5037664;28;19996;-80
2023/05/24 07:28:24;;;;;;;;;;;;;;;;;;5054321;28;19913;-80
2023/05/24 07:30:49;;;;;;;;;;;;;;;;;;5053914;28;19928;-80
2023/05/24 07:33:15;;;;;;;;;;;;;;;;;;5053909;28;20372;-80
2023/05/24 07:35:40;;;;;;;;;;;;;;;;;;5054385;28;20423;-79
2023/05/24 07:38:06;;;;;;;;;;;;;;;;;;5055216;28;19913;-82
2023/05/24 07:40:31;;;;;;;;;;;;;;;;;;5054892;28;19996;-79
2023/05/24 07:42:57;;;;;;;;;;;;;;;;;;5055195;28;19947;-81
2023/05/24 07:45:22;;;;;;;;;;;;;;;;;;5054041;28;19964;-79
2023/05/24 07:47:48;;;;;;;;;;;;;;;;;;5055606;28;19959;-81
2023/05/24 07:50:13;;;;;;;;;;;;;;;;;;5056404;28;19920;-79
2023/05/24 07:52:39;;;;;;;;;;;;;;;;;;5055444;28;20418;-83
2023/05/24 07:55:05;;;;;;;;;;;;;;;;;;5055733;28;20338;-78
2023/05/24 07:57:30;;;;;;;;;;;;;;;;;;5054296;28;19955;-81
2023/05/24 07:59:55;;;;;;;;;;;;;;;;;;5055060;28;20465;-80
2023/05/24 08:02:21;;;;;;;;;;;;;;;;;;5056210;28;19917;-79
2023/05/24 08:04:47;;;;;;;;;;;;;;;;;;5038131;28;20642;-79
2023/05/24 08:07:13;;;;;;;;;;;;;;;;;;5055780;28;19913;-80
2023/05/24 08:09:39;;;;;;;;;;;;;;;;;;5038806;28;19917;-81
2023/05/24 08:12:04;;;;;;;;;;;;;;;;;;5053948;28;19923;-82
2023/05/24 08:14:30;;;;;;;;;;;;;;;;;;5053447;28;19920;-80
2023/05/24 08:16:55;;;;;;;;;;;;;;;;;;5054551;28;19956;-81
2023/05/24 08:19:20;;;;;;;;;;;;;;;;;;5053880;28;19912;-82
2023/05/24 08:21:46;;;;;;;;;;;;;;;;;;5054748;28;19920;-82
2023/05/24 08:24:11;;;;;;;;;;;;;;;;;;5058447;28;20400;-81
2023/05/24 08:26:37;;;;;;;;;;;;;;;;;;5054454;28;19923;-81
2023/05/24 08:29:02;;;;;;;;;;;;;;;;;;5053145;28;19912;-81
2023/05/24 08:31:28;;;;;;;;;;;;;;;;;;5053120;28;19921;-83
2023/05/24 08:33:54;;;;;;;;;;;;;;;;;;5053235;28;20012;-80
2023/05/24 08:36:21;;;;;;;;;;;;;;;;;;5054505;28;19919;-80
2023/05/24 08:38:46;;;;;;;;;;;;;;;;;;5054318;28;19913;-81
2023/05/24 08:41:11;;;;;;;;;;;;;;;;;;5055495;28;20304;-79
2023/05/24 08:43:37;;;;;;;;;;;;;;;;;;5056278;28;19917;-82
2023/05/24 08:46:02;;;;;;;;;;;;;;;;;;5053902;28;20457;-82
2023/05/24 08:48:28;;;;;;;;;;;;;;;;;;5037161;28;19927;-79
2023/05/24 08:50:53;;;;;;;;;;;;;;;;;;5035983;28;19917;-80
2023/05/24 08:53:18;;;;;;;;;;;;;;;;;;5035540;28;19956;-83
2023/05/24 08:55:44;;;;;;;;;;;;;;;;;;5052824;28;19916;-82
2023/05/24 08:58:09;;;;;;;;;;;;;;;;;;5052474;28;19920;-82
2023/05/24 09:00:35;;;;;;;;;;;;;;;;;;5054027;28;19913;-82
2023/05/24 09:03:00;;;;;;;;;;;;;;;;;;5036248;28;19913;-79
2023/05/24 09:05:26;;;;;;;;;;;;;;;;;;5054133;28;19948;-80
2023/05/24 09:07:51;;;;;;;;;;;;;;;;;;5053587;28;20264;-80
2023/05/24 09:10:17;;;;;;;;;;;;;;;;;;5036246;28;19963;-81
2023/05/24 09:12:42;;;;;;;;;;;;;;;;;;5052786;28;19984;-80
2023/05/24 09:15:08;;;;;;;;;;;;;;;;;;5054227;28;19913;-79
2023/05/24 09:17:33;;;;;;;;;;;;;;;;;;5053799;28;20359;-79
2023/05/24 09:19:59;;;;;;;;;;;;;;;;;;5054526;28;19963;-79
2023/05/24 09:22:25;;;;;;;;;;;;;;;;;;5063778;28;20544;-82
2023/05/24 09:24:50;;;;;;;;;;;;;;;;;;5069170;28;19944;-82
2023/05/24 09:27:16;;;;;;;;;;;;;;;;;;5073326;28;19942;-82
2023/05/24 09:29:42;;;;;;;;;;;;;;;;;;5072319;28;19924;-81
2023/05/24 09:32:08;;;;;;;;;;;;;;;;;;5074934;28;19917;-80
2023/05/24 09:34:33;;;;;;;;;;;;;;;;;;5075073;28;19944;-81
2023/05/24 09:36:58;;;;;;;;;;;;;;;;;;5055635;28;19927;-81
2023/05/24 09:39:24;;;;;;;;;;;;;;;;;;5067548;28;19913;-80
2023/05/24 09:41:53;;;;;;;;;;;;;;;;;;5065767;28;20280;-81
2023/05/24 09:44:19;;;;;;;;;;;;;;;;;;5055788;28;19940;-80
2023/05/24 09:46:45;;;;;;;;;;;;;;;;;;5057838;28;19921;-81
2023/05/24 09:49:10;;;;;;;;;;;;;;;;;;5058102;28;19912;-82
2023/05/24 09:51:35;;;;;;;;;;;;;;;;;;5055085;28;19920;-80
2023/05/24 09:54:01;;;;;;;;;;;;;;;;;;5054833;28;19917;-82
2023/05/24 09:56:26;;;;;;;;;;;;;;;;;;5054705;28;19920;-82
2023/05/24 09:58:53;;;;;;;;;;;;;;;;;;5053524;28;20338;-82
2023/05/24 10:01:19;;;;;;;;;;;;;;;;;;5058476;28;20388;-82
2023/05/24 10:03:45;;;;;;;;;;;;;;;;;;5057351;28;19984;-79
2023/05/24 10:06:11;;;;;;;;;;;;;;;;;;5055418;28;19913;-79
2023/05/24 10:08:36;;;;;;;;;;;;;;;;;;5051558;28;19919;-81
2023/05/24 10:11:03;;;;;;;;;;;;;;;;;;5051160;28;19916;-78
2023/05/24 10:13:28;;;;;;;;;;;;;;;;;;5052046;28;19921;-84
2023/05/24 10:15:54;;;;;;;;;;;;;;;;;;5052905;28;19922;-87
2023/05/24 10:18:19;;;;;;;;;;;;;;;;;;5053380;28;19913;-88
2023/05/24 10:20:45;;;;;;;;;;;;;;;;;;5053913;28;19924;-88
2023/05/24 10:23:10;;;;;;;;;;;;;;;;;;5036463;28;19919;-84
2023/05/24 10:25:36;;;;;;;;;;;;;;;;;;5034680;28;19938;-81
2023/05/24 10:28:02;;;;;;;;;;;;;;;;;;5052425;28;19913;-81
2023/05/24 10:30:27;;;;;;;;;;;;;;;;;;5052196;28;19913;-86
2023/05/24 10:32:52;;;;;;;;;;;;;;;;;;5051594;28;20391;-84
2023/05/24 10:35:19;;;;;;;;;;;;;;;;;;5050617;28;19913;-81
2023/05/24 10:37:44;;;;;;;;;;;;;;;;;;5051010;28;20459;-83
2023/05/24 10:40:10;;;;;;;;;;;;;;;;;;5050884;28;19956;-83
2023/05/24 10:42:35;;;;;;;;;;;;;;;;;;5034661;28;20275;-84
2023/05/24 10:45:01;;;;;;;;;;;;;;;;;;5034724;28;19964;-84
2023/05/24 10:47:30;;;;;;;;;;;;;;;;;;5052774;28;19913;-85
2023/05/24 10:49:57;;;;;;;;;;;;;;;;;;5017658;28;19917;-84
2023/05/24 10:52:23;;;;;;;;;;;;;;;;;;5050881;28;20368;-83
2023/05/24 10:54:48;;;;;;;;;;;;;;;;;;5034247;28;19913;-84
2023/05/24 10:57:14;;;;;;;;;;;;;;;;;;5035070;28;20272;-86
2023/05/24 10:59:42;;;;;;;;;;;;;;;;;;5053076;28;19920;-87
2023/05/24 11:02:08;;;;;;;;;;;;;;;;;;5051466;28;20564;-86
2023/05/24 11:04:33;;;;;;;;;;;;;;;;;;5052997;28;19999;-85
2023/05/24 11:07:00;;;;;;;;;;;;;;;;;;5051172;28;19917;-85
2023/05/24 11:09:26;;;;;;;;;;;;;;;;;;5052979;28;20004;-87
2023/05/24 11:11:52;;;;;;;;;;;;;;;;;;5051747;28;19916;-86
2023/05/24 11:14:18;;;;;;;;;;;;;;;;;;5035039;28;19916;-86
2023/05/24 11:16:44;;;;;;;;;;;;;;;;;;5049099;28;19989;-85
2023/05/24 11:19:09;;;;;;;;;;;;;;;;;;5051091;28;19913;-85
2023/05/24 11:21:34;;;;;;;;;;;;;;;;;;5050933;28;19917;-84
2023/05/24 11:24:00;;;;;;;;;;;;;;;;;;5029611;28;20348;-84
2023/05/24 11:26:26;;;;;;;;;;;;;;;;;;5053628;28;19913;-85
2023/05/24 11:28:51;;;;;;;;;;;;;;;;;;5051368;28;20387;-83
2023/05/24 11:31:16;;;;;;;;;;;;;;;;;;5051648;28;20129;-83
2023/05/24 11:33:42;;;;;;;;;;;;;;;;;;5034031;28;20000;-80
2023/05/24 11:36:08;;;;;;;;;;;;;;;;;;5049222;28;19917;-79
2023/05/24 11:38:33;;;;;;;;;;;;;;;;;;5051517;28;19923;-79
2023/05/24 11:40:59;;;;;;;;;;;;;;;;;;5051456;28;19912;-80
2023/05/24 11:43:24;;;;;;;;;;;;;;;;;;5051751;28;19913;-81
2023/05/24 11:45:50;;;;;;;;;;;;;;;;;;5051743;28;19913;-81
2023/05/24 11:48:15;;;;;;;;;;;;;;;;;;5053689;28;19913;-79
2023/05/24 11:50:40;;;;;;;;;;;;;;;;;;5056154;28;19913;-80
2023/05/24 11:53:06;;;;;;;;;;;;;;;;;;5045279;28;20214;-80
2023/05/24 11:55:31;;;;;;;;;;;;;;;;;;5033895;28;20008;-79
2023/05/24 11:57:57;;;;;;;;;;;;;;;;;;5038642;28;20331;-80
2023/05/24 12:00:23;;;;;;;;;;;;;;;;;;5055078;28;19913;-80
2023/05/24 12:02:48;;;;;;;;;;;;;;;;;;5054194;28;20455;-81
2023/05/24 12:05:14;;;;;;;;;;;;;;;;;;5044860;28;19999;-79
2023/05/24 12:07:39;;;;;;;;;;;;;;;;;;5051731;28;19917;-80
2023/05/24 12:10:05;;;;;;;;;;;;;;;;;;5052378;28;19916;-80
2023/05/24 12:12:30;;;;;;;;;;;;;;;;;;5042264;28;20001;-80
2023/05/24 12:14:56;;;;;;;;;;;;;;;;;;5057330;28;19920;-80
2023/05/24 12:17:21;;;;;;;;;;;;;;;;;;5057560;28;20012;-80
2023/05/24 12:19:46;;;;;;;;;;;;;;;;;;5064765;28;19916;-79
2023/05/24 12:22:12;;;;;;;;;;;;;;;;;;5068544;28;20297;-80
2023/05/24 12:24:37;;;;;;;;;;;;;;;;;;5075247;28;19920;-80
2023/05/24 12:27:06;;;;;;;;;;;;;;;;;;5074599;28;19922;-79
2023/05/24 12:29:31;;;;;;;;;;;;;;;;;;5074537;28;19924;-81
2023/05/24 12:31:56;;;;;;;;;;;;;;;;;;5067021;28;19913;-80
2023/05/24 12:34:22;;;;;;;;;;;;;;;;;;5061694;28;19979;-79
2023/05/24 12:36:47;;;;;;;;;;;;;;;;;;5058365;28;20394;-80
2023/05/24 12:39:13;;;;;;;;;;;;;;;;;;5054366;28;19924;-80
2023/05/24 12:41:38;;;;;;;;;;;;;;;;;;5054586;28;19913;-79
2023/05/24 12:44:04;;;;;;;;;;;;;;;;;;5054364;28;20295;-79
2023/05/24 12:46:29;;;;;;;;;;;;;;;;;;5050903;28;19913;-79
2023/05/24 12:48:55;;;;;;;;;;;;;;;;;;5046051;28;19999;-80
2023/05/24 12:51:20;;;;;;;;;;;;;;;;;;5053919;28;19917;-79
2023/05/24 12:53:46;;;;;;;;;;;;;;;;;;5052385;28;19916;-79
2023/05/24 12:56:11;;;;;;;;;;;;;;;;;;5052936;28;19963;-79
2023/05/24 12:58:37;;;;;;;;;;;;;;;;;;5035895;28;20059;-79
2023/05/24 13:01:02;;;;;;;;;;;;;;;;;;5052932;28;19912;-80
2023/05/24 13:03:28;;;;;;;;;;;;;;;;;;5055737;28;19987;-79
2023/05/24 13:05:53;;;;;;;;;;;;;;;;;;5042047;28;19913;-79
2023/05/24 13:08:18;;;;;;;;;;;;;;;;;;5060124;28;20013;-79
2023/05/24 13:10:44;;;;;;;;;;;;;;;;;;5060896;28;19980;-79
2023/05/24 13:13:09;;;;;;;;;;;;;;;;;;5038830;28;19983;-80
2023/05/24 13:15:36;;;;;;;;;;;;;;;;;;5053594;28;19939;-80
2023/05/24 13:18:08;;;;;;;;;;;;;;;;;;5053558;28;19917;-78
2023/05/24 13:20:35;;;;;;;;;;;;;;;;;;5052173;28;19919;-78
2023/05/24 13:23:01;;;;;;;;;;;;;;;;;;5054347;28;19909;-80
2023/05/24 13:25:27;;;;;;;;;;;;;;;;;;5052688;28;19919;-79
2023/05/24 13:27:55;;;;;;;;;;;;;;;;;;5050059;28;20329;-79
2023/05/24 13:30:26;;;;;;;;;;;;;;;;;;5053672;28;19920;-80
2023/05/24 13:32:51;;;;;;;;;;;;;;;;;;5052054;28;20368;-79
2023/05/24 13:35:17;;;;;;;;;;;;;;;;;;5052215;28;19913;-79
2023/05/24 13:37:42;;;;;;;;;;;;;;;;;;5051849;28;19909;-80
2023/05/24 13:40:08;;;;;;;;;;;;;;;;;;5052965;28;19917;-79
2023/05/24 13:42:33;;;;;;;;;;;;;;;;;;5051848;28;20297;-79
2023/05/24 13:44:58;;;;;;;;;;;;;;;;;;5047169;28;19936;-78
2023/05/24 13:47:25;;;;;;;;;;;;;;;;;;5040025;28;19947;-80
2023/05/24 13:49:50;;;;;;;;;;;;;;;;;;5043474;28;19913;-81
2023/05/24 13:52:16;;;;;;;;;;;;;;;;;;5044483;28;19916;-82
2023/05/24 13:54:42;;;;;;;;;;;;;;;;;;5051756;28;19912;-80
2023/05/24 13:57:08;;;;;;;;;;;;;;;;;;5053274;28;20022;-80
2023/05/24 13:59:33;;;;;;;;;;;;;;;;;;5052419;28;20371;-82
2023/05/24 14:01:58;;;;;;;;;;;;;;;;;;5048144;28;19917;-81
2023/05/24 14:04:24;;;;;;;;;;;;;;;;;;5045840;28;19935;-81
2023/05/24 14:06:49;;;;;;;;;;;;;;;;;;5053027;28;19912;-81
2023/05/24 14:09:19;;;;;;;;;;;;;;;;;;5051843;28;20091;-81
2023/05/24 14:11:45;;;;;;;;;;;;;;;;;;5050434;28;20365;-81
2023/05/24 14:14:10;;;;;;;;;;;;;;;;;;5051156;28;19923;-81
2023/05/24 14:16:36;;;;;;;;;;;;;;;;;;5043349;28;19948;-82
2023/05/24 14:19:01;;;;;;;;;;;;;;;;;;5051004;28;20035;-81
2023/05/24 14:21:26;;;;;;;;;;;;;;;;;;5034349;28;19924;-81
2023/05/24 14:23:52;;;;;;;;;;;;;;;;;;5050928;28;19921;-81
2023/05/24 14:26:17;;;;;;;;;;;;;;;;;;5052633;28;19917;-81
2023/05/24 14:28:43;;;;;;;;;;;;;;;;;;5050733;28;20354;-80
2023/05/24 14:31:08;;;;;;;;;;;;;;;;;;5051257;28;20367;-82
2023/05/24 14:33:33;;;;;;;;;;;;;;;;;;5052184;28;19917;-82
2023/05/24 14:35:59;;;;;;;;;;;;;;;;;;5052351;28;19919;-81
2023/05/24 14:38:24;;;;;;;;;;;;;;;;;;5027877;28;19952;-81
2023/05/24 14:40:50;;;;;;;;;;;;;;;;;;5050654;28;19913;-81
2023/05/24 14:43:15;;;;;;;;;;;;;;;;;;5053344;28;19991;-81
2023/05/24 14:45:40;;;;;;;;;;;;;;;;;;5049811;28;19913;-81
2023/05/24 14:48:06;;;;;;;;;;;;;;;;;;5035206;28;19913;-81
2023/05/24 14:50:34;;;;;;;;;;;;;;;;;;5052448;28;19921;-82
2023/05/24 14:53:00;;;;;;;;;;;;;;;;;;5051510;28;19983;-82
2023/05/24 14:55:25;;;;;;;;;;;;;;;;;;5052532;28;19924;-80
2023/05/24 14:57:51;;;;;;;;;;;;;;;;;;5035128;28;20012;-81
2023/05/24 15:00:16;;;;;;;;;;;;;;;;;;5052697;28;19912;-81
2023/05/24 15:02:42;;;;;;;;;;;;;;;;;;5050187;28;19913;-81
2023/05/24 15:05:07;;;;;;;;;;;;;;;;;;5051578;28;20403;-82
2023/05/24 15:07:32;;;;;;;;;;;;;;;;;;5054813;28;19949;-80
2023/05/24 15:09:58;;;;;;;;;;;;;;;;;;5056187;28;19920;-80
2023/05/24 15:12:23;;;;;;;;;;;;;;;;;;5061037;28;19994;-81
2023/05/24 15:14:49;;;;;;;;;;;;;;;;;;5066440;28;19982;-81
2023/05/24 15:17:14;;;;;;;;;;;;;;;;;;5070242;28;19912;-80
2023/05/24 15:19:40;;;;;;;;;;;;;;;;;;5053546;28;19928;-80
2023/05/24 15:22:06;;;;;;;;;;;;;;;;;;5053757;28;19928;-81
2023/05/24 15:24:31;;;;;;;;;;;;;;;;;;5051223;28;19913;-82
2023/05/24 15:26:56;;;;;;;;;;;;;;;;;;5053184;28;19999;-81
2023/05/24 15:29:23;;;;;;;;;;;;;;;;;;5025643;28;19909;-78
2023/05/24 15:31:48;;;;;;;;;;;;;;;;;;5057310;28;19913;-81
2023/05/24 15:34:14;;;;;;;;;;;;;;;;;;5057322;28;19924;-81
2023/05/24 15:36:40;;;;;;;;;;;;;;;;;;5056297;28;19913;-80
2023/05/24 15:39:05;;;;;;;;;;;;;;;;;;5038917;28;19936;-80
2023/05/24 15:41:31;;;;;;;;;;;;;;;;;;5056536;28;19924;-81
2023/05/24 15:43:58;;;;;;;;;;;;;;;;;;5056981;28;20291;-81
2023/05/24 15:46:23;;;;;;;;;;;;;;;;;;5057712;28;19966;-80
2023/05/24 15:48:49;;;;;;;;;;;;;;;;;;5055027;28;20314;-80
2023/05/24 15:51:14;;;;;;;;;;;;;;;;;;5054664;28;20007;-80
2023/05/24 15:53:40;;;;;;;;;;;;;;;;;;5053910;28;19970;-81
2023/05/24 15:56:06;;;;;;;;;;;;;;;;;;5056000;28;19971;-79
2023/05/24 15:58:31;;;;;;;;;;;;;;;;;;5055654;28;20431;-79
2023/05/24 16:00:56;;;;;;;;;;;;;;;;;;5054330;28;20352;-81
2023/05/24 16:03:22;;;;;;;;;;;;;;;;;;5054665;28;19982;-81
2023/05/24 16:05:48;;;;;;;;;;;;;;;;;;5053220;28;20402;-80
2023/05/24 16:08:15;;;;;;;;;;;;;;;;;;5055185;28;19920;-79
2023/05/24 16:10:40;;;;;;;;;;;;;;;;;;5054460;28;20007;-79
2023/05/24 16:13:05;;;;;;;;;;;;;;;;;;5049935;28;20012;-80
2023/05/24 16:15:33;;;;;;;;;;;;;;;;;;5049589;28;20281;-81
2023/05/24 16:17:59;;;;;;;;;;;;;;;;;;5054720;28;19936;-80
2023/05/24 16:20:24;;;;;;;;;;;;;;;;;;5036808;28;20387;-80
2023/05/24 16:22:50;;;;;;;;;;;;;;;;;;5054272;28;19967;-79
2023/05/24 16:25:15;;;;;;;;;;;;;;;;;;5053933;28;19948;-80
2023/05/24 16:27:40;;;;;;;;;;;;;;;;;;5054658;28;19913;-80
2023/05/24 16:30:06;;;;;;;;;;;;;;;;;;5036879;28;20297;-80
2023/05/24 16:32:31;;;;;;;;;;;;;;;;;;5054618;28;19917;-80
2023/05/24 16:34:57;;;;;;;;;;;;;;;;;;5050348;28;19921;-80